Time;durP1;ratioP1;P1;durP2;ratioP2;P2;SDS_P1;SDS_P2;PMS_P1;PMS_P2;Temp;Humidity;BMP_temperature;BMP_pressure;BME280_temperature;BME280_humidity;BME280_pressure;Samples;Min_cycle;Max_cycle;Signal;HPM_P1;HPM_P2
2021/05/18 00:01:44;;;;;;;14.60;5.20;;;;;;;16.91;76.35;99474.94;1798313;80;21239;-57
2021/05/18 00:04:52;;;;;;;16.70;5.05;;;;;;;16.89;76.39;99473.47;1798516;78;21188;-57
2021/05/18 00:08:00;;;;;;;16.10;4.72;;;;;;;16.85;76.32;99475.05;1798871;80;21188;-57
2021/05/18 00:14:36;;;;;;;12.90;4.75;;;;;;;16.78;76.45;99464.09;1798926;78;21203;-57
2021/05/18 00:17:43;;;;;;;12.80;4.58;;;;;;;16.75;76.51;99460.42;1799046;80;21550;-57
2021/05/18 00:20:48;;;;;;;12.80;5.15;;;;;;;16.75;76.56;99455.43;1798763;78;21231;-57
2021/05/18 00:23:54;;;;;;;13.03;4.85;;;;;;;16.71;76.45;99448.71;1798842;78;21195;-57
2021/05/18 00:27:03;;;;;;;13.28;5.05;;;;;;;16.68;76.54;99456.09;1798922;80;21251;-57
2021/05/18 00:30:10;;;;;;;13.45;5.30;;;;;;;16.64;76.70;99449.34;1798866;78;21227;-58
2021/05/18 00:33:22;;;;;;;12.15;5.60;;;;;;;16.63;76.87;99450.44;1798912;80;21261;-58
2021/05/18 00:36:28;;;;;;;17.62;5.53;;;;;;;16.60;77.06;99443.47;1799150;80;21183;-59
2021/05/18 00:39:33;;;;;;;18.10;5.70;;;;;;;16.64;77.45;99452.11;1798920;78;21783;-56
2021/05/18 00:42:38;;;;;;;20.17;5.35;;;;;;;16.68;77.57;99450.57;1798873;80;21188;-57
2021/05/18 00:45:48;;;;;;;16.12;5.53;;;;;;;16.68;77.57;99440.33;1798949;78;21242;-57
2021/05/18 00:48:57;;;;;;;10.98;4.75;;;;;;;16.71;77.70;99444.03;1799210;77;21191;-56
2021/05/18 00:52:07;;;;;;;11.83;5.37;;;;;;;16.77;77.55;99440.84;1813041;79;21621;-58
2021/05/18 00:55:21;;;;;;;12.45;5.05;;;;;;;16.78;77.41;99439.75;1813005;78;21727;-57
2021/05/18 00:58:29;;;;;;;14.60;5.90;;;;;;;16.80;77.40;99438.45;1813085;79;21939;-57
2021/05/18 01:01:33;;;;;;;;;;;;;;;16.81;77.46;99437.92;1815765;79;21172;-57
2021/05/18 01:04:43;;;;;;;12.88;5.78;;;;;;;16.88;77.76;99444.16;1812640;78;20263;-57
2021/05/18 01:07:48;;;;;;;17.25;5.60;;;;;;;16.90;77.83;99447.00;1812989;79;21392;-57
2021/05/18 01:10:54;;;;;;;12.10;6.30;;;;;;;16.97;77.95;99448.23;1813050;77;21195;-56
2021/05/18 01:14:03;;;;;;;10.72;6.53;;;;;;;17.02;78.01;99445.60;1812989;78;21376;-57
2021/05/18 01:17:10;;;;;;;9.93;6.67;;;;;;;17.06;78.04;99444.06;1813209;79;22040;-58
2021/05/18 01:20:19;;;;;;;10.63;6.60;;;;;;;17.11;78.04;99439.47;1813075;78;21385;-57
2021/05/18 01:23:25;;;;;;;10.32;7.15;;;;;;;17.16;77.94;99440.98;1813158;79;21356;-57
2021/05/18 01:26:31;;;;;;;12.82;6.62;;;;;;;17.20;77.86;99439.96;1812952;79;21326;-57
2021/05/18 01:29:37;;;;;;;10.18;7.15;;;;;;;17.25;77.81;99435.38;1812937;78;21401;-58
2021/05/18 01:32:43;;;;;;;13.88;7.28;;;;;;;17.28;77.71;99436.83;1812917;79;21440;-57
2021/05/18 01:35:49;;;;;;;10.35;6.37;;;;;;;17.30;77.63;99436.87;1812876;78;21394;-58
2021/05/18 01:39:07;;;;;;;11.05;6.78;;;;;;;17.31;77.56;99444.64;1813050;78;21392;-58
2021/05/18 01:45:35;;;;;;;8.95;6.62;;;;;;;17.31;77.59;99450.17;1813073;78;21357;-57
2021/05/18 01:48:47;;;;;;;20.62;8.40;;;;;;;17.31;77.69;99451.56;1813053;78;21325;-57
2021/05/18 01:51:50;;;;;;;10.48;6.87;;;;;;;17.34;77.93;99458.84;1802383;77;21369;-57
2021/05/18 01:54:56;;;;;;;11.50;7.28;;;;;;;17.39;78.11;99457.58;1798775;78;21243;-59
2021/05/18 01:58:02;;;;;;;11.97;7.08;;;;;;;17.43;78.21;99454.61;1798929;80;21917;-57
2021/05/18 02:01:11;;;;;;;9.53;7.70;;;;;;;17.50;78.35;99457.28;1798815;80;21196;-57
2021/05/18 02:04:32;;;;;;;10.43;6.45;;;;;;;17.54;78.46;99462.09;1798905;78;21199;-57
2021/05/18 02:07:43;;;;;;;8.48;6.33;;;;;;;17.57;78.50;99464.90;1798857;80;21196;-57
2021/05/18 02:10:49;;;;;;;10.85;6.70;;;;;;;17.59;78.67;99466.89;1798854;78;21211;-57
2021/05/18 02:13:58;;;;;;;14.18;7.35;;;;;;;17.62;78.77;99465.02;1798740;78;21325;-57
2021/05/18 02:17:18;;;;;;;9.68;6.47;;;;;;;17.65;78.83;99464.52;1798869;80;22006;-57
2021/05/18 02:20:37;;;;;;;11.05;6.92;;;;;;;17.68;78.93;99467.66;1780258;79;21279;-56
2021/05/18 02:27:08;;;;;;;10.50;7.70;;;;;;;17.76;79.07;99476.97;1798917;80;21184;-55
2021/05/18 02:30:16;;;;;;;10.65;7.20;;;;;;;17.78;79.04;99476.72;1798911;78;22583;-56
2021/05/18 02:33:21;;;;;;;11.53;8.20;;;;;;;17.81;79.01;99488.69;1798830;80;21188;-56
2021/05/18 02:36:30;;;;;;;12.60;7.20;;;;;;;17.82;78.93;99498.13;1798874;80;21180;-57
2021/05/18 02:39:37;;;;;;;10.93;7.70;;;;;;;17.83;78.98;99490.14;1798810;78;21442;-57
2021/05/18 02:42:42;;;;;;;12.23;7.50;;;;;;;17.81;79.11;99495.61;1798790;80;21716;-57
2021/05/18 02:49:11;;;;;;;9.03;7.22;;;;;;;17.78;79.50;99513.56;1723068;82;21354;-57
2021/05/18 02:52:16;;;;;;;8.55;6.92;;;;;;;17.76;79.67;99514.88;1773038;80;21887;-57
2021/05/18 02:55:30;;;;;;;10.43;7.30;;;;;;;17.72;79.80;99519.23;1776019;79;21236;-57
2021/05/18 02:58:31;;;;;;;8.20;7.30;;;;;;;17.70;80.13;99516.70;1776418;81;21334;-58
2021/05/18 03:01:37;;;;;;;10.18;6.80;;;;;;;17.69;80.39;99523.87;1776291;81;21343;-57
2021/05/18 03:04:43;;;;;;;10.58;7.30;;;;;;;17.70;80.65;99523.63;1776380;79;21291;-58
2021/05/18 03:07:48;;;;;;;8.85;7.17;;;;;;;17.73;80.79;99525.05;1776400;81;21213;-58
2021/05/18 03:10:55;;;;;;;9.78;7.78;;;;;;;17.75;80.89;99532.05;1776480;79;21264;-58
2021/05/18 03:14:01;;;;;;;8.68;7.10;;;;;;;17.80;80.99;99531.31;1776434;79;21445;-57
2021/05/18 03:17:07;;;;;;;10.90;7.50;;;;;;;17.82;80.86;99530.54;1775202;81;21327;-56
2021/05/18 03:20:18;;;;;;;10.43;7.75;;;;;;;17.82;80.90;99529.97;1755845;80;21298;-56
2021/05/18 03:23:25;;;;;;;9.03;7.33;;;;;;;17.85;80.92;99530.05;1772555;81;21165;-57
2021/05/18 03:26:33;;;;;;;9.58;7.45;;;;;;;17.85;80.93;99526.72;1772483;81;21337;-58
2021/05/18 03:29:39;;;;;;;8.95;8.05;;;;;;;17.85;81.08;99525.33;1772573;81;21398;-58
2021/05/18 03:36:07;;;;;;;12.80;7.85;;;;;;;17.93;81.32;99520.52;1772651;81;21319;-59
2021/05/18 03:39:13;;;;;;;13.30;7.92;;;;;;;17.96;81.56;99519.48;1772461;81;21579;-57
2021/05/18 03:42:34;;;;;;;11.70;8.00;;;;;;;17.97;81.59;99519.78;1772550;81;21192;-58
2021/05/18 03:45:39;;;;;;;9.13;7.50;;;;;;;17.95;81.39;99522.50;1772449;81;21927;-58
2021/05/18 03:52:18;;;;;;;12.40;8.40;;;;;;;17.95;81.70;99530.81;1772490;81;21847;-58
2021/05/18 03:52:23;;;;;;;14.63;7.97;;;;;;;17.95;81.66;99544.09;1772652;81;21315;-58
2021/05/18 04:12:08;;;;;;;12.07;8.68;;;;;;;18.01;82.32;99544.53;1789133;80;21338;-59
2021/05/18 04:18:43;;;;;;;12.10;8.10;;;;;;;18.07;82.23;99540.78;1789219;80;21336;-58
2021/05/18 04:52:06;;;;;;;9.88;7.95;;;;;;;17.84;82.19;99554.11;1796193;80;21322;-60
2021/05/18 04:59:01;;;;;;;14.93;8.65;;;;;;;17.81;82.38;99557.38;1795495;79;21816;-60
2021/05/18 04:59:04;;;;;;;11.97;7.92;;;;;;;17.81;82.54;99556.52;1787952;78;21366;-59
2021/05/18 05:09:22;;;;;;;;;;;;;;;17.93;83.02;99552.36;1813797;79;21704;-57
2021/05/18 05:15:33;;;;;;;9.23;6.80;;;;;;;18.00;83.06;99559.44;1811384;79;21204;-58
2021/05/18 05:18:41;;;;;;;11.10;7.62;;;;;;;17.95;82.76;99552.41;1811765;79;21369;-60
2021/05/18 05:21:48;;;;;;;21.87;13.43;;;;;;;17.94;82.73;99547.96;1810421;79;21210;-60
2021/05/18 05:24:55;;;;;;;10.82;7.72;;;;;;;17.96;82.77;99547.72;1802666;78;21217;-60
2021/05/18 05:28:00;;;;;;;13.48;7.70;;;;;;;17.97;82.85;99549.39;1796442;79;21740;-61
2021/05/18 05:31:12;;;;;;;10.10;7.78;;;;;;;17.98;82.79;99546.41;1778690;80;21222;-60
2021/05/18 05:34:19;;;;;;;9.30;8.18;;;;;;;18.07;82.83;99545.46;1779477;79;21754;-60
2021/05/18 05:37:26;;;;;;;9.15;8.10;;;;;;;18.17;82.68;99545.13;1779889;80;21206;-60
2021/05/18 05:40:31;;;;;;;9.78;7.80;;;;;;;18.31;82.49;99551.24;1780051;79;21532;-60
2021/05/18 05:43:37;;;;;;;10.23;7.65;;;;;;;18.39;82.15;99544.81;1780371;79;21211;-61
2021/05/18 05:46:43;;;;;;;12.63;8.75;;;;;;;18.48;82.02;99547.48;1780377;80;21898;-58
2021/05/18 05:49:50;;;;;;;13.22;8.45;;;;;;;18.52;81.63;99552.81;1779678;79;21183;-61
2021/05/18 05:52:55;;;;;;;10.23;7.83;;;;;;;18.52;81.30;99549.22;1810594;79;21163;-59
2021/05/18 05:56:00;;;;;;;13.08;9.30;;;;;;;18.48;80.90;99557.19;1811416;79;21706;-59
2021/05/18 05:59:08;;;;;;;12.78;8.10;;;;;;;18.44;80.88;99546.27;1800993;79;21870;-59
2021/05/18 06:02:15;;;;;;;12.40;8.50;;;;;;;18.46;80.83;99541.88;1792939;79;21348;-60
2021/05/18 06:05:20;;;;;;;14.07;9.85;;;;;;;18.48;80.86;99534.16;1801429;79;21205;-60
2021/05/18 06:08:28;;;;;;;16.17;9.93;;;;;;;18.58;80.96;99535.22;1784764;80;21199;-60
2021/05/18 06:48:23;;;;;;;19.95;12.80;;;;;;;20.26;74.24;99530.18;1768489;81;21715;-60
2021/05/18 06:51:29;;;;;;;14.90;12.18;;;;;;;20.31;73.88;99517.73;1772336;79;21313;-62
2021/05/18 06:54:36;;;;;;;18.95;12.70;;;;;;;20.31;73.53;99519.13;1768742;81;21272;-60
2021/05/18 06:57:44;;;;;;;15.93;11.78;;;;;;;20.32;73.66;99524.96;1769128;79;21469;-60
2021/05/18 07:00:50;;;;;;;15.95;11.88;;;;;;;20.29;73.27;99519.92;1769521;81;21356;-60
2021/05/18 07:04:01;;;;;;;16.65;11.20;;;;;;;20.31;72.99;99517.16;1769420;81;21435;-60
2021/05/18 07:07:16;;;;;;;14.73;10.60;;;;;;;20.35;73.27;99520.27;1777355;79;21284;-60
2021/05/18 07:10:20;;;;;;;14.87;11.30;;;;;;;20.33;72.45;99512.73;1762829;81;21212;-60
2021/05/18 07:13:28;;;;;;;14.40;10.93;;;;;;;20.26;72.18;99517.67;1803037;79;22143;-61
2021/05/18 07:16:35;;;;;;;13.68;9.68;;;;;;;20.23;72.31;99515.41;1762742;81;21193;-61
2021/05/18 07:19:41;;;;;;;14.47;9.45;;;;;;;20.22;72.03;99515.10;1803146;79;21361;-60
2021/05/18 07:22:50;;;;;;;13.25;10.05;;;;;;;20.29;71.91;99514.37;1762541;81;21633;-60
2021/05/18 07:25:55;;;;;;;14.95;11.20;;;;;;;20.38;71.41;99516.42;1803696;79;21353;-59
2021/05/18 07:29:01;;;;;;;13.53;9.78;;;;;;;20.55;71.38;99503.84;1762983;81;21406;-60
2021/05/18 07:32:07;;;;;;;14.98;9.53;;;;;;;20.80;70.68;99498.53;1803444;79;21715;-58
2021/05/18 07:35:17;;;;;;;13.38;8.98;;;;;;;21.11;69.73;99499.12;1762746;81;21248;-60
2021/05/18 07:38:25;;;;;;;12.20;8.63;;;;;;;21.38;68.73;99504.07;1803658;79;21921;-59
2021/05/18 07:41:32;;;;;;;11.95;8.10;;;;;;;21.52;67.45;99494.69;1769284;79;21737;-59
2021/05/18 07:44:38;;;;;;;12.88;8.43;;;;;;;21.70;66.53;99493.72;1770398;81;21393;-58
2021/05/18 07:47:43;;;;;;;15.32;9.88;;;;;;;21.87;65.88;99494.39;1793769;79;21358;-59
2021/05/18 07:50:57;;;;;;;11.57;8.88;;;;;;;22.02;65.27;99495.03;1750841;82;21526;-61
2021/05/18 08:07:30;;;;;;;11.85;8.70;;;;;;;22.39;62.63;99488.75;1765241;81;21196;-58
2021/05/18 08:10:45;;;;;;;12.80;9.03;;;;;;;22.53;62.85;99472.38;1793968;78;21346;-60
2021/05/18 08:13:42;;;;;;;12.18;7.67;;;;;;;22.68;62.95;99470.45;1815226;78;21307;-60
2021/05/18 08:20:27;;;;;;;13.88;8.95;;;;;;;22.72;59.56;99475.75;1780665;80;21350;-60
2021/05/18 09:35:06;;;;;;;6.60;4.00;;;;;;;24.32;52.30;99420.19;1757998;80;21586;-58
2021/05/18 10:25:59;;;;;;;10.43;5.40;;;;;;;24.21;50.39;99398.99;1784445;80;21353;-58
2021/05/18 10:34:52;;;;;;;7.40;6.25;;;;;;;23.79;50.21;99389.35;1763340;80;21223;-58
2021/05/18 10:37:50;;;;;;;11.43;7.45;;;;;;;23.59;49.88;99387.48;1773090;80;21721;-60
2021/05/18 10:40:53;;;;;;;7.08;6.37;;;;;;;23.47;51.25;99382.76;1793932;80;21243;-60
2021/05/18 10:44:07;;;;;;;8.85;7.12;;;;;;;23.37;51.22;99395.38;1794705;78;21377;-60
2021/05/18 10:47:13;;;;;;;13.25;9.55;;;;;;;23.19;54.31;99405.15;1793360;80;21314;-61
2021/05/18 10:50:18;;;;;;;12.47;9.63;;;;;;;22.90;56.89;99415.76;1794250;78;21200;-60
2021/05/18 10:53:33;;;;;;;11.10;8.70;;;;;;;22.60;58.64;99408.77;1791841;79;21926;-61
2021/05/18 10:57:02;;;;;;;13.32;8.85;;;;;;;22.45;59.09;99406.79;1775140;80;21230;-65
2021/05/18 11:00:10;;;;;;;9.75;8.45;;;;;;;22.52;60.15;99398.16;1791858;80;21431;-65
2021/05/18 11:03:18;;;;;;;12.05;7.47;;;;;;;22.90;62.21;99387.30;1793710;79;21201;-62
2021/05/18 11:06:23;;;;;;;10.25;8.45;;;;;;;23.32;62.80;99383.66;1778208;79;21777;-62
2021/05/18 11:09:31;;;;;;;11.30;8.70;;;;;;;23.80;61.51;99373.69;1802840;78;21188;-64
2021/05/18 11:12:36;;;;;;;11.43;8.45;;;;;;;24.27;57.91;99365.66;1799301;79;21180;-63
2021/05/18 11:15:41;;;;;;;13.05;8.10;;;;;;;24.76;58.17;99349.64;1788144;79;21332;-64
2021/05/18 11:18:48;;;;;;;9.00;7.35;;;;;;;25.19;56.00;99353.98;1775206;79;21298;-64
2021/05/18 11:22:05;;;;;;;7.62;6.78;;;;;;;25.35;52.64;99348.53;1777007;79;21322;-62
2021/05/18 11:25:08;;;;;;;10.43;6.92;;;;;;;25.30;52.06;99349.95;1803375;78;21466;-62
2021/05/18 11:28:40;;;;;;;6.65;5.92;;;;;;;25.21;51.85;99342.78;1785474;79;21258;-63
2021/05/18 11:31:42;;;;;;;12.78;6.47;;;;;;;25.12;51.59;99349.32;1785640;79;21408;-62
2021/05/18 11:35:07;;;;;;;6.90;4.97;;;;;;;25.07;51.23;99349.36;1771383;79;21365;-64
2021/05/18 11:38:20;;;;;;;7.72;4.50;;;;;;;25.28;50.98;99337.64;1777679;79;21357;-64
2021/05/18 11:41:41;;;;;;;8.35;4.17;;;;;;;25.65;50.44;99329.39;1777329;79;21325;-63
2021/05/18 11:44:46;;;;;;;7.92;3.98;;;;;;;26.00;49.70;99322.50;1801043;79;21234;-61
2021/05/18 11:47:53;;;;;;;13.35;6.55;;;;;;;26.25;46.59;99310.34;1796351;79;21927;-63
2021/05/18 11:51:08;;;;;;;7.72;5.25;;;;;;;26.45;45.82;99307.77;1799284;79;22046;-59
2021/05/18 11:54:13;;;;;;;5.17;4.60;;;;;;;26.62;44.88;99305.26;1800670;78;21702;-60
2021/05/18 11:57:20;;;;;;;9.15;4.37;;;;;;;26.61;44.21;99297.95;1801794;79;21707;-63
2021/05/18 12:00:37;;;;;;;6.22;3.87;;;;;;;26.62;45.29;99295.43;1801302;78;21346;-60
2021/05/18 12:03:43;;;;;;;7.80;4.17;;;;;;;26.58;44.51;99298.57;1794217;79;21282;-61
2021/05/18 12:07:16;;;;;;;5.40;4.50;;;;;;;26.46;43.88;99283.59;1794560;80;21545;-61
2021/05/18 12:10:18;;;;;;;6.67;4.20;;;;;;;26.31;43.99;99283.02;1782329;80;21251;-60
2021/05/18 12:13:38;;;;;;;7.97;5.12;;;;;;;26.01;44.64;99282.08;1797656;79;21779;-61
2021/05/18 12:16:51;;;;;;;9.40;4.85;;;;;;;25.84;45.92;99278.94;1785011;80;21731;-60
2021/05/18 12:20:00;;;;;;;12.28;4.85;;;;;;;25.63;46.11;99284.00;1796846;78;21296;-60
2021/05/18 12:23:05;;;;;;;6.20;5.12;;;;;;;25.47;47.56;99280.27;1790037;78;21824;-61
2021/05/18 12:26:27;;;;;;;10.93;4.87;;;;;;;25.40;48.71;99283.47;1773191;80;21192;-61
2021/05/18 12:29:47;;;;;;;8.93;5.20;;;;;;;25.43;51.36;99280.06;1780069;80;21165;-62
2021/05/18 12:32:57;;;;;;;9.58;5.08;;;;;;;25.46;54.34;99280.86;1766280;81;21200;-62
2021/05/18 12:36:14;;;;;;;7.03;4.50;;;;;;;25.40;54.12;99274.22;1766671;81;21730;-60
2021/05/18 12:39:25;;;;;;;5.17;4.17;;;;;;;25.54;54.56;99264.78;1766489;81;21213;-61
2021/05/18 12:42:35;;;;;;;5.12;3.58;;;;;;;25.79;53.73;99263.03;1766397;81;21200;-61
2021/05/18 12:45:41;;;;;;;7.08;3.30;;;;;;;26.10;52.59;99260.06;1766485;81;21216;-59
2021/05/18 12:48:48;;;;;;;8.00;3.42;;;;;;;26.34;49.79;99246.77;1766706;81;21208;-60
2021/05/18 12:52:17;;;;;;;5.15;3.42;;;;;;;26.61;49.48;99248.81;1788818;80;21748;-60
2021/05/18 12:55:32;;;;;;;4.62;2.33;;;;;;;26.89;50.03;99256.22;1769163;80;21725;-60
2021/05/18 12:58:39;;;;;;;5.72;2.40;;;;;;;26.90;48.04;99245.23;1784120;79;21248;-60
2021/05/18 13:01:52;;;;;;;4.05;2.50;;;;;;;26.62;45.34;99242.08;1798967;80;21160;-63
2021/05/18 13:05:22;;;;;;;4.78;2.33;;;;;;;26.36;45.69;99242.25;1796620;77;21228;-61
2021/05/18 13:08:38;;;;;;;3.33;2.27;;;;;;;26.26;45.03;99237.64;1651276;83;21273;-61
2021/05/18 13:15:10;;;;;;;4.62;2.25;;;;;;;25.87;45.16;99247.48;1610578;87;21209;-60
2021/05/18 13:18:16;;;;;;;5.60;2.37;;;;;;;25.71;45.62;99240.43;1615604;88;21295;-61
2021/05/18 13:21:35;;;;;;;2.90;2.20;;;;;;;25.52;45.65;99250.23;1605508;88;21229;-60
2021/05/18 13:28:11;;;;;;;4.65;2.30;;;;;;;25.26;46.87;99242.42;1637037;85;21398;-62
2021/05/18 13:31:20;;;;;;;8.60;2.80;;;;;;;25.47;47.08;99234.03;1622184;86;21324;-60
2021/05/18 13:34:26;;;;;;;6.83;2.75;;;;;;;25.47;45.48;99227.02;1648677;85;21260;-62
2021/05/18 13:37:32;;;;;;;5.60;2.80;;;;;;;25.48;45.34;99236.53;1644117;87;21256;-63
2021/05/18 13:40:40;;;;;;;4.50;2.60;;;;;;;25.90;45.05;99232.86;1629037;88;21315;-61
2021/05/18 13:43:48;;;;;;;5.25;2.62;;;;;;;26.28;45.03;99237.33;1644144;85;21387;-61
2021/05/18 13:46:55;;;;;;;5.85;2.60;;;;;;;26.50;44.51;99246.52;1642358;87;21231;-63
2021/05/18 13:50:01;;;;;;;4.20;2.80;;;;;;;26.40;43.71;99237.11;1641947;86;21264;-61
2021/05/18 13:53:06;;;;;;;6.70;2.50;;;;;;;26.36;44.17;99236.63;1643398;85;21840;-63
2021/05/18 13:56:11;;;;;;;2.58;2.08;;;;;;;26.31;43.57;99236.16;1629561;88;21296;-61
2021/05/18 13:59:19;;;;;;;2.37;1.90;;;;;;;26.12;42.58;99224.13;1629921;88;21338;-61
2021/05/18 14:02:26;;;;;;;4.40;2.02;;;;;;;25.95;42.64;99222.97;1644086;87;21225;-60
2021/05/18 14:05:31;;;;;;;6.35;2.75;;;;;;;25.69;42.03;99225.90;1620207;87;21765;-59
2021/05/18 14:08:39;;;;;;;3.72;2.20;;;;;;;25.36;42.91;99229.69;1624150;84;21296;-62
2021/05/18 14:11:46;;;;;;;6.83;2.70;;;;;;;25.08;43.09;99214.63;1650413;86;21414;-60
2021/05/18 14:14:53;;;;;;;5.22;2.75;;;;;;;24.81;42.90;99218.02;1655952;84;21368;-60
2021/05/18 14:17:59;;;;;;;5.70;2.80;;;;;;;24.58;43.56;99217.38;1648475;87;21243;-59
2021/05/18 14:21:06;;;;;;;5.05;2.70;;;;;;;24.43;44.29;99221.73;1676772;85;21255;-59
2021/05/18 14:24:21;;;;;;;4.40;2.33;;;;;;;24.64;44.00;99218.98;1686038;85;21375;-60
2021/05/18 14:27:20;;;;;;;3.77;2.30;;;;;;;25.00;43.62;99215.28;1677168;85;21556;-60
2021/05/18 14:30:27;;;;;;;6.75;2.50;;;;;;;25.00;43.08;99214.72;1686070;85;21239;-59
2021/05/18 14:33:32;;;;;;;3.80;2.62;;;;;;;24.88;42.79;99217.08;1677002;85;21301;-59
2021/05/18 14:36:41;;;;;;;4.65;2.27;;;;;;;25.00;43.60;99215.28;1677149;85;21218;-59
2021/05/18 14:43:05;;;;;;;6.75;2.30;;;;;;;25.24;43.13;99215.27;1646127;86;21204;-59
2021/05/18 14:46:14;;;;;;;4.78;2.33;;;;;;;25.50;43.10;99212.44;1650395;87;21205;-58
2021/05/18 14:56:03;;;;;;;11.60;6.67;;;;;;;25.03;42.89;99212.72;1650505;87;21248;-59
2021/05/18 14:59:09;;;;;;;11.33;4.65;;;;;;;25.51;42.20;99205.69;1650820;86;21379;-59
2021/05/18 15:02:17;;;;;;;4.22;2.95;;;;;;;25.76;41.10;99208.12;1644059;86;21294;-61
2021/05/18 15:05:25;;;;;;;19.35;3.12;;;;;;;25.50;40.48;99212.44;1622449;88;21239;-62
2021/05/18 15:08:30;;;;;;;12.10;2.92;;;;;;;24.93;42.69;99256.79;1651940;82;21727;-58
2021/05/18 15:11:37;;;;;;;11.88;2.83;;;;;;;24.24;45.42;99265.54;1622176;88;21255;-60
2021/05/18 15:14:43;;;;;;;5.47;2.80;;;;;;;23.63;47.36;99268.41;1649822;86;21311;-58
2021/05/18 15:17:50;;;;;;;5.58;2.40;;;;;;;23.05;49.17;99273.38;1622053;88;21823;-59
2021/05/18 15:20:56;;;;;;;8.40;2.80;;;;;;;22.54;50.68;99262.03;1650257;87;21378;-58
2021/05/18 15:24:03;;;;;;;3.42;2.77;;;;;;;22.16;52.10;99264.25;1622020;88;21793;-59
2021/05/18 15:27:10;;;;;;;8.20;2.80;;;;;;;21.87;52.96;99263.64;1666277;84;21227;-60
2021/05/18 15:30:19;;;;;;;3.65;2.58;;;;;;;21.61;53.54;99264.11;1677287;85;21186;-61
2021/05/18 15:33:25;;;;;;;7.95;2.72;;;;;;;21.41;53.84;99276.58;1670889;84;21190;-59
2021/05/18 15:36:31;;;;;;;3.62;2.72;;;;;;;21.21;54.28;99268.16;1648435;86;21264;-60
2021/05/18 15:39:37;;;;;;;6.83;2.52;;;;;;;21.02;54.88;99275.30;1651742;85;21565;-60
2021/05/18 15:42:43;;;;;;;3.92;2.90;;;;;;;20.87;55.72;99270.18;1648584;85;21221;-59
2021/05/18 15:45:50;;;;;;;3.90;2.70;;;;;;;20.72;56.03;99276.48;1664360;85;21272;-59
2021/05/18 15:48:56;;;;;;;5.45;2.90;;;;;;;20.59;55.97;99264.42;1649961;87;21673;-61
2021/05/18 15:52:03;;;;;;;3.75;2.67;;;;;;;20.43;56.81;99264.02;1712382;83;21272;-58
2021/05/18 15:55:14;;;;;;;;;;;;;;;20.27;57.00;99254.73;1714867;84;21240;-57
2021/05/18 15:58:18;;;;;;;4.85;2.80;;;;;;;20.11;57.73;99271.50;1711259;82;20208;-58
2021/05/18 16:01:29;;;;;;;5.22;2.33;;;;;;;19.96;57.88;99265.83;1711464;84;21216;-58
2021/05/18 16:04:35;;;;;;;4.05;2.40;;;;;;;19.86;58.79;99257.38;1677407;85;21225;-59
2021/05/18 16:07:51;;;;;;;3.45;2.65;;;;;;;19.79;58.78;99261.75;1633724;87;21220;-59
2021/05/18 16:10:54;;;;;;;2.92;2.15;;;;;;;19.76;59.01;99258.66;1658164;84;22081;-59
2021/05/18 16:14:01;;;;;;;3.58;2.52;;;;;;;19.76;58.51;99258.66;1683012;85;21243;-59
2021/05/18 16:17:06;;;;;;;3.20;2.40;;;;;;;19.80;58.40;99263.99;1683119;85;21271;-59
2021/05/18 16:20:15;;;;;;;5.97;2.52;;;;;;;19.83;58.11;99267.09;1682706;85;21244;-59
2021/05/18 16:23:21;;;;;;;3.55;2.45;;;;;;;19.87;58.17;99263.24;1704290;82;21216;-59
2021/05/18 16:26:30;;;;;;;4.03;2.42;;;;;;;19.91;58.41;99256.05;1719724;82;21626;-59
2021/05/18 16:29:36;;;;;;;3.80;2.83;;;;;;;19.91;58.17;99256.05;1710204;82;21610;-58
2021/05/18 16:32:43;;;;;;;5.05;2.95;;;;;;;19.82;58.42;99260.41;1711676;82;21355;-59
2021/05/18 16:35:49;;;;;;;4.92;2.80;;;;;;;19.73;59.05;99258.65;1711522;82;21291;-58
2021/05/18 16:38:56;;;;;;;3.20;2.90;;;;;;;19.62;59.47;99263.81;1720207;82;21712;-58
2021/05/18 16:42:02;;;;;;;4.05;2.70;;;;;;;19.53;60.08;99261.22;1678620;84;21672;-57
2021/05/18 16:45:07;;;;;;;3.58;2.75;;;;;;;19.46;60.38;99259.19;1673972;85;21190;-58
2021/05/18 16:48:12;;;;;;;7.33;2.95;;;;;;;19.46;60.90;99255.55;1659020;85;21346;-58
2021/05/18 16:51:18;;;;;;;4.22;2.80;;;;;;;19.46;61.29;99259.19;1705399;84;21197;-60
2021/05/18 16:54:23;;;;;;;5.12;2.90;;;;;;;19.43;61.75;99256.08;1676965;84;21239;-57
2021/05/18 16:57:29;;;;;;;5.12;3.08;;;;;;;19.41;62.22;99254.14;1715116;83;21337;-61
2021/05/18 17:00:35;;;;;;;6.78;3.35;;;;;;;19.43;62.43;99254.69;1713262;82;21589;-58
2021/05/18 17:03:41;;;;;;;6.20;3.25;;;;;;;19.42;62.54;99254.41;1706937;82;21741;-58
2021/05/18 17:06:50;;;;;;;5.35;3.50;;;;;;;19.38;62.88;99249.11;1710892;83;21574;-58
2021/05/18 17:09:55;;;;;;;6.20;3.65;;;;;;;19.31;63.03;99248.73;1707624;82;21184;-58
2021/05/18 17:13:01;;;;;;;5.80;3.67;;;;;;;19.25;63.37;99248.36;1700067;84;21256;-58
2021/05/18 17:16:08;;;;;;;6.97;3.70;;;;;;;19.19;63.50;99250.79;1674191;85;21252;-58
2021/05/18 17:19:15;;;;;;;6.92;3.80;;;;;;;19.11;63.82;99249.86;1694834;83;21243;-58
2021/05/18 17:22:24;;;;;;;6.80;3.30;;;;;;;19.05;64.07;99255.05;1656539;85;21154;-58
2021/05/18 17:25:30;;;;;;;4.50;3.55;;;;;;;19.02;63.94;99247.79;1699212;82;21887;-58
2021/05/18 17:28:41;;;;;;;5.85;3.30;;;;;;;19.01;63.90;99254.45;1700698;82;21220;-59
2021/05/18 17:31:43;;;;;;;5.70;3.65;;;;;;;18.97;64.03;99254.12;1704115;82;21228;-59
2021/05/18 17:34:50;;;;;;;4.83;3.72;;;;;;;18.93;64.10;99254.32;1690551;84;21251;-59
2021/05/18 17:37:58;;;;;;;5.42;3.67;;;;;;;18.88;64.14;99266.77;1707239;84;21252;-59
2021/05/18 17:41:06;;;;;;;6.62;3.98;;;;;;;18.83;64.23;99270.84;1707321;84;21852;-57
2021/05/18 17:44:13;;;;;;;5.67;3.92;;;;;;;18.78;64.45;99264.38;1705920;84;21291;-57
2021/05/18 17:47:19;;;;;;;5.35;3.85;;;;;;;18.70;64.71;99264.27;1648725;87;21245;-57
2021/05/18 17:50:26;;;;;;;6.00;3.55;;;;;;;18.68;64.99;99272.56;1680245;85;21374;-57
2021/05/18 17:53:32;;;;;;;4.00;3.40;;;;;;;18.64;65.17;99268.61;1679978;85;21236;-58
2021/05/18 17:56:38;;;;;;;4.67;3.67;;;;;;;18.61;65.51;99268.59;1680073;85;21188;-58
2021/05/18 17:59:46;;;;;;;4.12;3.72;;;;;;;18.59;65.78;99266.61;1679499;85;21346;-58
2021/05/18 18:02:52;;;;;;;4.78;3.70;;;;;;;18.58;66.10;99262.70;1698846;84;21272;-58
2021/05/18 18:05:57;;;;;;;5.53;4.33;;;;;;;18.54;66.33;99259.59;1707451;84;21247;-59
2021/05/18 18:09:04;;;;;;;4.87;3.90;;;;;;;18.53;66.63;99264.01;1707896;84;21729;-59
2021/05/18 18:12:13;;;;;;;6.50;4.45;;;;;;;18.54;66.83;99257.36;1710022;82;21244;-58
2021/05/18 18:15:20;;;;;;;7.50;4.60;;;;;;;18.55;67.07;99254.91;1712369;84;21310;-59
2021/05/18 18:18:25;;;;;;;5.80;4.53;;;;;;;18.54;67.20;99249.89;1710292;84;21296;-58
2021/05/18 18:21:34;;;;;;;4.95;4.47;;;;;;;18.54;67.37;99249.89;1711686;84;21259;-58
2021/05/18 18:24:41;;;;;;;4.35;3.95;;;;;;;18.53;67.46;99243.22;1712145;84;21264;-58
2021/05/18 18:27:46;;;;;;;6.90;3.85;;;;;;;18.49;67.53;99241.50;1712493;84;21755;-58
2021/05/18 18:30:53;;;;;;;8.30;3.60;;;;;;;18.47;67.71;99243.68;1711994;84;21247;-59
2021/05/18 18:33:59;;;;;;;4.25;3.85;;;;;;;18.47;67.79;99242.30;1712351;84;21247;-58
2021/05/18 18:37:09;;;;;;;5.40;4.10;;;;;;;18.45;67.91;99245.89;1712475;84;21181;-58
2021/05/18 18:40:19;;;;;;;6.03;4.33;;;;;;;18.41;68.00;99250.24;1711345;84;21283;-59
2021/05/18 18:43:24;;;;;;;5.85;4.50;;;;;;;18.33;68.08;99242.33;1711965;84;21240;-59
2021/05/18 18:46:29;;;;;;;6.53;3.90;;;;;;;18.26;68.37;99239.44;1710401;84;21227;-59
2021/05/18 18:49:38;;;;;;;8.15;4.12;;;;;;;18.18;68.54;99232.41;1711621;84;21568;-59
2021/05/18 18:55:55;;;;;;;5.28;3.90;;;;;;;18.02;69.04;99245.70;1712463;84;21279;-58
2021/05/18 18:59:01;;;;;;;6.10;4.20;;;;;;;17.93;69.52;99244.45;1711004;84;21971;-58
2021/05/18 19:02:08;;;;;;;4.20;3.80;;;;;;;17.86;69.97;99243.77;1709580;84;21196;-58
2021/05/18 19:05:43;;;;;;;6.25;4.50;;;;;;;17.80;70.46;99235.08;1712606;84;21310;-57
2021/05/18 19:14:57;;;;;;;11.18;4.60;;;;;;;17.83;71.42;99240.11;1711531;84;21267;-59
2021/05/18 19:18:03;;;;;;;5.83;3.90;;;;;;;17.84;71.63;99237.63;1711827;84;21204;-59
2021/05/18 19:21:12;;;;;;;5.90;4.40;;;;;;;17.80;71.90;99229.55;1712310;84;21272;-58
2021/05/18 19:24:18;;;;;;;6.40;4.37;;;;;;;17.76;72.23;99230.58;1711873;84;21287;-58